createdAt,value
2019-02-18T00:01:53.561Z,47.60
2019-02-18T00:04:22.116Z,50.03
2019-02-18T00:06:50.410Z,42.97
2019-02-18T00:09:18.698Z,54.17
2019-02-18T00:11:47.122Z,49.30
2019-02-18T00:14:15.709Z,45.57
2019-02-18T00:16:44.036Z,44.43
2019-02-18T00:22:28.097Z,46.50
2019-02-18T00:24:56.421Z,40.03
2019-02-18T00:27:24.735Z,50.93
2019-02-18T00:29:53.101Z,45.70
2019-02-18T00:32:21.590Z,50.40
2019-02-18T00:34:49.828Z,43.97
2019-02-18T00:40:33.993Z,47.37
2019-02-18T00:43:02.422Z,55.33
2019-02-18T00:45:31.603Z,42.40
2019-02-18T00:47:59.989Z,49.93
2019-02-18T00:50:28.657Z,43.77
2019-02-18T00:52:57.969Z,55.97
2019-02-18T00:55:26.286Z,52.53
2019-02-18T00:57:55.763Z,50.27
2019-02-18T01:00:24.208Z,54.47
2019-02-18T01:02:52.730Z,55.00
2019-02-18T01:05:21.025Z,56.80
2019-02-18T01:07:49.333Z,47.60
2019-02-18T01:10:17.801Z,47.70
2019-02-18T01:12:46.296Z,51.80
2019-02-18T01:15:15.898Z,54.60
2019-02-18T01:17:44.194Z,57.70
2019-02-18T01:20:13.459Z,58.60
2019-02-18T01:22:41.792Z,46.27
2019-02-18T01:25:11.508Z,56.43
2019-02-18T01:27:39.913Z,52.87
2019-02-18T01:30:09.866Z,49.50
2019-02-18T01:32:38.383Z,55.97
2019-02-18T01:35:06.876Z,49.93
2019-02-18T01:37:44.866Z,57.57
2019-02-18T01:40:07.057Z,50.47
2019-02-18T01:42:35.409Z,51.23
2019-02-18T01:45:04.888Z,54.97
2019-02-18T01:47:33.358Z,45.40
2019-02-18T01:50:01.649Z,48.13
2019-02-18T01:52:29.954Z,51.40
2019-02-18T01:58:15.018Z,59.17
2019-02-18T02:00:43.280Z,63.80
2019-02-18T02:03:11.725Z,54.40
2019-02-18T02:05:40.169Z,53.83
2019-02-18T02:08:08.489Z,45.07
2019-02-18T02:10:36.821Z,48.67
2019-02-18T02:13:06.662Z,52.23
2019-02-18T02:15:34.966Z,53.07
2019-02-18T02:18:03.351Z,53.07
2019-02-18T02:20:31.814Z,52.57
2019-02-18T02:23:00.561Z,54.07
2019-02-18T02:25:28.935Z,53.53
2019-02-18T02:27:57.351Z,49.07
2019-02-18T02:30:25.734Z,48.40
2019-02-18T02:32:54.290Z,40.30
2019-02-18T02:35:22.601Z,52.70
2019-02-18T02:37:51.042Z,44.77
2019-02-18T02:40:19.438Z,46.60
2019-02-18T02:42:47.728Z,46.13
2019-02-18T02:45:16.190Z,40.90
2019-02-18T02:47:44.541Z,44.43
2019-02-18T02:50:13.035Z,43.33
2019-02-18T02:52:41.480Z,34.43
2019-02-18T02:55:10.010Z,49.77
2019-02-18T02:57:38.390Z,50.70
2019-02-18T03:00:08.483Z,56.53
2019-02-18T03:02:37.093Z,57.13
2019-02-18T03:05:05.441Z,53.83
2019-02-18T03:07:33.752Z,47.90
2019-02-18T03:10:02.054Z,36.20
2019-02-18T03:12:32.751Z,48.00
2019-02-18T03:15:01.841Z,42.53
2019-02-18T03:17:33.034Z,50.50
2019-02-18T03:20:03.113Z,47.60
2019-02-18T03:22:32.168Z,40.60
2019-02-18T03:25:01.993Z,41.30
2019-02-18T03:27:30.399Z,56.63
2019-02-18T03:30:00.116Z,37.43
2019-02-18T03:35:44.753Z,32.80
2019-02-18T03:38:13.013Z,30.83
2019-02-18T03:40:41.471Z,35.83
2019-02-18T03:46:16.234Z,45.00
2019-02-18T03:51:48.778Z,54.33
2019-02-18T03:57:34.009Z,51.40
2019-02-18T04:00:02.297Z,41.53
2019-02-18T04:02:30.880Z,34.03
2019-02-18T04:04:59.157Z,34.47
2019-02-18T04:07:27.275Z,41.87
2019-02-18T04:09:55.529Z,35.00
2019-02-18T04:15:40.537Z,49.17
2019-02-18T04:18:08.822Z,41.00
2019-02-18T04:23:52.853Z,52.90
2019-02-18T04:29:36.774Z,45.83
2019-02-18T04:32:05.289Z,46.63
2019-02-18T04:37:37.890Z,50.00
2019-02-18T04:40:07.471Z,39.33
2019-02-18T04:42:35.623Z,44.53
2019-02-18T04:45:05.265Z,45.57
2019-02-18T04:50:49.146Z,41.53
2019-02-18T04:56:33.735Z,40.40
2019-02-18T04:59:02.107Z,51.80
2019-02-18T05:01:30.461Z,48.70
2019-02-18T05:03:58.734Z,46.13
2019-02-18T05:06:27.022Z,48.17
2019-02-18T05:09:05.024Z,43.87
2019-02-18T05:11:25.515Z,32.27
2019-02-18T05:13:54.030Z,44.63
2019-02-18T05:16:22.234Z,47.17
2019-02-18T05:18:50.681Z,44.03
2019-02-18T05:21:18.974Z,44.97
2019-02-18T05:23:47.235Z,45.10
2019-02-18T05:26:15.683Z,46.57
2019-02-18T05:28:44.070Z,48.10
2019-02-18T05:34:27.762Z,56.50
2019-02-18T05:36:55.953Z,63.43
2019-02-18T05:39:24.490Z,50.73
2019-02-18T05:45:21.200Z,42.67
2019-02-18T05:47:49.690Z,41.37
2019-02-18T05:50:17.937Z,40.23
2019-02-18T05:56:02.431Z,37.83
2019-02-18T06:01:35.901Z,46.37
2019-02-18T06:04:04.163Z,47.13
2019-02-18T06:06:32.589Z,39.67
2019-02-18T06:12:05.377Z,42.20
2019-02-18T06:14:33.643Z,47.03
2019-02-18T06:17:02.820Z,49.97
2019-02-18T06:19:31.561Z,58.10
2019-02-18T06:21:59.903Z,41.73
2019-02-18T06:27:45.337Z,56.50
2019-02-18T06:30:13.691Z,52.00
2019-02-18T06:32:42.117Z,48.13
2019-02-18T06:35:10.570Z,66.60
2019-02-18T06:37:38.977Z,57.27
2019-02-18T06:40:08.324Z,55.70
2019-02-18T06:42:36.709Z,53.43
2019-02-18T06:45:07.254Z,50.90
2019-02-18T06:47:35.749Z,54.03
2019-02-18T06:50:05.547Z,47.17
2019-02-18T06:52:33.861Z,42.53
2019-02-18T06:55:02.223Z,48.87
2019-02-18T06:57:32.330Z,47.60
2019-02-18T07:00:00.733Z,47.73
2019-02-18T07:02:30.828Z,52.93
2019-02-18T07:05:00.850Z,49.20
2019-02-18T07:07:30.972Z,46.37
2019-02-18T07:10:00.953Z,50.30
2019-02-18T07:12:30.989Z,57.37
2019-02-18T07:14:59.399Z,53.07
2019-02-18T07:17:27.751Z,57.40
2019-02-18T07:19:55.980Z,58.30
2019-02-18T07:22:24.429Z,52.10
2019-02-18T07:24:54.003Z,69.10
2019-02-18T07:27:22.210Z,66.97
2019-02-18T07:29:50.598Z,51.67
2019-02-18T07:32:18.949Z,48.13
2019-02-18T07:34:47.562Z,36.47
2019-02-18T07:37:15.948Z,41.93
2019-02-18T07:39:44.275Z,34.60
2019-02-18T07:42:12.774Z,43.63
2019-02-18T07:44:41.053Z,38.23
2019-02-18T07:47:09.341Z,50.47
2019-02-18T07:49:37.718Z,49.40
2019-02-18T07:52:06.023Z,40.43
2019-02-18T07:54:34.469Z,40.23
2019-02-18T07:57:02.853Z,32.67
2019-02-18T07:59:32.299Z,32.77
2019-02-18T08:02:00.649Z,43.17
2019-02-18T08:04:30.180Z,31.23
2019-02-18T08:06:58.461Z,28.70
2019-02-18T08:09:26.928Z,30.57
2019-02-18T08:11:55.378Z,37.07
2019-02-18T08:14:23.772Z,42.93
2019-02-18T08:16:52.350Z,38.63
2019-02-18T08:19:20.697Z,28.63
2019-02-18T08:21:49.033Z,31.10
2019-02-18T08:24:17.537Z,30.60
2019-02-18T08:26:45.870Z,30.80
2019-02-18T08:29:14.155Z,35.10
2019-02-18T08:31:42.513Z,26.23
2019-02-18T08:34:10.916Z,26.77
2019-02-18T08:36:39.439Z,34.67
2019-02-18T08:39:08.542Z,25.23
2019-02-18T08:41:37.033Z,29.83
2019-02-18T08:44:05.368Z,29.10
2019-02-18T08:46:33.741Z,29.10
2019-02-18T08:49:02.163Z,28.73
2019-02-18T08:51:30.430Z,24.50
2019-02-18T08:53:58.779Z,26.73
2019-02-18T08:56:27.251Z,32.63
2019-02-18T08:58:55.630Z,25.10
2019-02-18T09:01:23.931Z,24.67
2019-02-18T09:03:52.167Z,26.57
2019-02-18T09:06:20.461Z,16.07
2019-02-18T09:08:48.941Z,21.30
2019-02-18T09:11:17.202Z,20.23
2019-02-18T09:13:45.731Z,20.57
2019-02-18T09:16:14.131Z,23.70
2019-02-18T09:18:42.501Z,21.83
2019-02-18T09:21:10.964Z,25.00
2019-02-18T09:23:40.940Z,21.57
2019-02-18T09:26:09.493Z,29.57
2019-02-18T09:28:37.896Z,27.77
2019-02-18T09:31:06.233Z,16.97
2019-02-18T09:33:34.560Z,19.67
2019-02-18T09:36:02.941Z,19.47
2019-02-18T09:38:31.362Z,22.40
2019-02-18T09:40:59.648Z,22.13
2019-02-18T09:43:27.980Z,20.10
2019-02-18T09:45:56.475Z,16.17
2019-02-18T09:48:24.867Z,18.13
2019-02-18T09:50:53.118Z,20.80
2019-02-18T09:53:21.474Z,20.77
2019-02-18T09:55:49.881Z,15.50
2019-02-18T09:58:18.111Z,19.83
2019-02-18T10:00:46.413Z,21.90
2019-02-18T10:03:14.663Z,24.67
2019-02-18T10:05:43.089Z,22.97
2019-02-18T10:08:11.465Z,23.13
2019-02-18T10:10:39.789Z,16.10
2019-02-18T10:13:08.298Z,22.70
2019-02-18T10:15:36.615Z,17.27
2019-02-18T10:18:04.931Z,19.30
2019-02-18T10:20:33.139Z,14.27
2019-02-18T10:23:01.443Z,20.03
2019-02-18T10:25:29.747Z,22.43
2019-02-18T10:27:58.091Z,18.47
2019-02-18T10:30:26.374Z,12.30
2019-02-18T10:32:54.670Z,18.50
2019-02-18T10:35:23.042Z,15.47
2019-02-18T10:37:54.965Z,21.03
2019-02-18T10:40:21.385Z,18.70
2019-02-18T10:42:49.833Z,24.97
2019-02-18T10:45:18.202Z,12.17
2019-02-18T10:47:46.682Z,15.10
2019-02-18T10:50:15.039Z,15.57
2019-02-18T10:52:43.561Z,17.93
2019-02-18T10:55:11.933Z,13.60
2019-02-18T10:57:40.697Z,18.70
2019-02-18T11:00:10.528Z,16.80
2019-02-18T11:02:38.834Z,15.20
2019-02-18T11:05:07.734Z,25.97
2019-02-18T11:07:36.031Z,17.17
2019-02-18T11:10:05.874Z,16.10
2019-02-18T11:12:34.247Z,18.97
2019-02-18T11:15:02.564Z,13.20
2019-02-18T11:17:38.739Z,16.37
2019-02-18T11:20:01.064Z,16.27
2019-02-18T11:22:29.680Z,17.80
2019-02-18T11:24:57.975Z,18.57
2019-02-18T11:27:26.347Z,22.03
2019-02-18T11:29:54.616Z,20.17
2019-02-18T11:32:23.033Z,21.97
2019-02-18T11:34:51.653Z,15.63
2019-02-18T11:37:19.992Z,15.73
2019-02-18T11:39:48.374Z,16.80
2019-02-18T11:42:17.016Z,24.70
2019-02-18T11:44:45.207Z,19.87
2019-02-18T11:47:13.467Z,21.80
2019-02-18T11:49:42.422Z,23.03
2019-02-18T11:52:11.093Z,21.50
2019-02-18T11:54:39.495Z,20.97
2019-02-18T11:57:07.949Z,23.67
2019-02-18T11:59:36.234Z,26.00
2019-02-18T12:02:04.760Z,20.07
2019-02-18T12:04:33.580Z,27.30
2019-02-18T12:07:02.090Z,20.97
2019-02-18T12:09:30.402Z,22.60
2019-02-18T12:11:58.778Z,19.83
2019-02-18T12:14:28.249Z,24.33
2019-02-18T12:16:56.581Z,21.13
2019-02-18T12:19:24.899Z,25.73
2019-02-18T12:21:53.456Z,29.70
2019-02-18T12:24:21.790Z,25.00
2019-02-18T12:26:50.136Z,26.10
2019-02-18T12:29:26.223Z,23.53
2019-02-18T12:31:48.551Z,29.77
2019-02-18T12:34:16.934Z,25.23
2019-02-18T12:36:45.615Z,31.87
2019-02-18T12:39:14.192Z,30.40
2019-02-18T12:41:48.656Z,28.30
2019-02-18T12:44:12.615Z,31.50
2019-02-18T12:46:41.056Z,37.07
2019-02-18T12:49:09.470Z,27.67
2019-02-18T12:51:37.985Z,24.47
2019-02-18T12:54:06.630Z,27.80
2019-02-18T12:56:35.083Z,28.07
2019-02-18T12:59:03.579Z,29.63
2019-02-18T13:01:32.213Z,31.33
2019-02-18T13:04:00.641Z,26.80
2019-02-18T13:06:29.130Z,20.13
2019-02-18T13:08:57.545Z,27.40
2019-02-18T13:11:25.925Z,36.73
2019-02-18T13:13:54.584Z,33.37
2019-02-18T13:16:23.169Z,28.93
2019-02-18T13:18:51.438Z,33.10
2019-02-18T13:21:19.814Z,30.07
2019-02-18T13:23:48.213Z,32.03
2019-02-18T13:26:16.590Z,28.13
2019-02-18T13:28:45.114Z,29.90
2019-02-18T13:31:13.780Z,34.33
2019-02-18T13:33:42.207Z,29.10
2019-02-18T13:36:11.961Z,29.57
2019-02-18T13:38:40.381Z,30.83
2019-02-18T13:41:08.738Z,33.70
2019-02-18T13:43:37.054Z,33.47
2019-02-18T13:46:05.569Z,36.53
2019-02-18T13:48:34.029Z,31.97
2019-02-18T13:51:03.175Z,35.57
2019-02-18T13:53:31.506Z,36.93
2019-02-18T13:56:00.298Z,34.37
2019-02-18T13:58:28.834Z,30.23
2019-02-18T14:00:57.129Z,30.40
2019-02-18T14:03:25.866Z,36.80
2019-02-18T14:05:54.437Z,35.57
2019-02-18T14:08:22.892Z,37.40
2019-02-18T14:10:51.313Z,34.23
2019-02-18T14:13:19.653Z,36.33
2019-02-18T14:15:47.943Z,38.03
2019-02-18T14:18:16.324Z,35.57
2019-02-18T14:20:44.735Z,45.57
2019-02-18T14:23:12.995Z,41.53
2019-02-18T14:25:41.379Z,36.27
2019-02-18T14:28:09.871Z,35.53
2019-02-18T14:30:38.303Z,35.60
2019-02-18T14:33:08.136Z,36.27
2019-02-18T14:35:36.614Z,38.13
2019-02-18T14:38:05.040Z,44.00
2019-02-18T14:40:33.980Z,47.50
2019-02-18T14:43:02.220Z,59.23
2019-02-18T14:45:30.761Z,43.17
2019-02-18T14:47:59.249Z,38.23
2019-02-18T14:50:28.069Z,42.00
2019-02-18T14:52:56.829Z,45.57
2019-02-18T14:55:25.189Z,40.83
2019-02-18T14:57:53.590Z,43.57
2019-02-18T15:00:22.994Z,55.67
2019-02-18T15:02:52.234Z,54.23
2019-02-18T15:05:20.637Z,49.63
2019-02-18T15:07:49.134Z,44.90
2019-02-18T15:10:17.629Z,43.90
2019-02-18T15:12:46.334Z,50.83
2019-02-18T15:15:15.192Z,48.00
2019-02-18T15:17:43.650Z,47.10
2019-02-18T15:23:40.521Z,46.03
2019-02-18T15:26:08.918Z,44.63
2019-02-18T15:32:05.387Z,47.27
2019-02-18T15:34:33.766Z,49.17
2019-02-18T15:37:02.116Z,50.43
2019-02-18T15:39:30.497Z,46.70
2019-02-18T15:45:14.601Z,38.60
2019-02-18T15:50:46.916Z,37.30
2019-02-18T15:53:15.287Z,37.90
2019-02-18T15:58:48.902Z,47.50
2019-02-18T16:01:17.176Z,44.50
2019-02-18T16:03:45.524Z,47.67
2019-02-18T16:06:14.211Z,144.87
2019-02-18T16:08:42.603Z,113.53
2019-02-18T16:11:10.915Z,104.07
2019-02-18T16:13:39.489Z,78.93
2019-02-18T16:16:07.934Z,112.87
2019-02-18T16:18:36.222Z,77.73
2019-02-18T16:21:04.627Z,67.23
2019-02-18T16:23:33.022Z,66.03
2019-02-18T16:26:01.393Z,68.80
2019-02-18T16:28:29.869Z,71.83
2019-02-18T16:30:58.194Z,87.67
2019-02-18T16:33:26.745Z,84.53
2019-02-18T16:35:55.036Z,102.57
2019-02-18T16:38:23.483Z,118.47
2019-02-18T16:40:52.089Z,96.37
2019-02-18T16:43:20.902Z,92.53
2019-02-18T16:45:49.260Z,73.87
2019-02-18T16:48:18.226Z,76.57
2019-02-18T16:50:46.462Z,82.20
2019-02-18T16:53:14.819Z,78.87
2019-02-18T16:55:43.321Z,93.40
2019-02-18T16:58:11.849Z,94.73
2019-02-18T17:00:40.406Z,98.43
2019-02-18T17:03:08.699Z,97.27
2019-02-18T17:05:37.134Z,103.50
2019-02-18T17:08:05.476Z,112.70
2019-02-18T17:10:33.836Z,112.37
2019-02-18T17:13:07.971Z,114.93
2019-02-18T17:15:32.061Z,114.03
2019-02-18T17:18:00.401Z,114.83
2019-02-18T17:20:28.920Z,109.30
2019-02-18T17:22:57.413Z,134.83
2019-02-18T17:25:27.135Z,128.67
2019-02-18T17:31:12.159Z,84.60
2019-02-18T17:33:40.598Z,89.57
2019-02-18T17:36:08.956Z,84.13
2019-02-18T17:38:37.396Z,81.87
2019-02-18T17:41:05.763Z,101.77
2019-02-18T17:43:34.185Z,76.60
2019-02-18T17:46:02.615Z,106.37
2019-02-18T17:48:31.453Z,106.87
2019-02-18T17:50:59.950Z,100.70
2019-02-18T17:53:28.216Z,113.80
2019-02-18T17:55:56.591Z,126.43
2019-02-18T17:58:25.167Z,132.23
2019-02-18T18:00:55.074Z,149.57
2019-02-18T18:03:23.682Z,161.37
2019-02-18T18:05:52.130Z,148.00
2019-02-18T18:08:20.504Z,154.73
2019-02-18T18:10:49.117Z,144.63
2019-02-18T18:13:24.937Z,150.17
2019-02-18T18:15:47.551Z,137.33
2019-02-18T18:18:15.757Z,135.93
2019-02-18T18:20:44.174Z,121.70
2019-02-18T18:23:12.394Z,106.47
2019-02-18T18:25:40.781Z,97.23
2019-02-18T18:28:09.098Z,103.07
2019-02-18T18:30:37.510Z,115.43
2019-02-18T18:33:05.863Z,95.30
2019-02-18T18:35:35.897Z,111.33
2019-02-18T18:38:04.284Z,82.37
2019-02-18T18:40:32.859Z,100.30
2019-02-18T18:43:01.161Z,101.27
2019-02-18T18:45:29.711Z,108.40
2019-02-18T18:47:58.209Z,97.27
2019-02-18T18:50:27.190Z,88.73
2019-02-18T18:56:11.770Z,72.67
2019-02-18T18:58:40.252Z,69.07
2019-02-18T19:04:24.005Z,89.60
2019-02-18T19:10:09.740Z,75.33
2019-02-18T19:12:38.307Z,73.90
2019-02-18T19:15:08.093Z,73.30
2019-02-18T19:17:36.474Z,59.87
2019-02-18T19:20:05.809Z,74.10
2019-02-18T19:22:34.199Z,73.37
2019-02-18T19:28:18.870Z,98.33
2019-02-18T19:30:47.254Z,98.03
2019-02-18T19:33:15.486Z,102.03
2019-02-18T19:35:43.910Z,101.40
2019-02-18T19:38:12.392Z,97.83
2019-02-18T19:40:40.996Z,87.73
2019-02-18T19:43:09.648Z,95.97
2019-02-18T19:45:38.130Z,85.87
2019-02-18T19:48:07.853Z,98.77
2019-02-18T19:50:36.164Z,72.30
2019-02-18T19:53:04.645Z,91.73
2019-02-18T19:58:48.291Z,78.13
2019-02-18T20:01:16.611Z,69.30
2019-02-18T20:03:45.079Z,92.33
2019-02-18T20:06:13.509Z,92.20
2019-02-18T20:08:41.955Z,96.10
2019-02-18T20:11:10.563Z,84.33
2019-02-18T20:13:38.846Z,106.90
2019-02-18T20:16:07.421Z,85.40
2019-02-18T20:18:37.258Z,88.40
2019-02-18T20:24:10.364Z,89.73
2019-02-18T20:29:54.654Z,96.47
2019-02-18T20:32:23.307Z,83.33
2019-02-18T20:34:51.709Z,76.70
2019-02-18T20:37:20.198Z,72.17
2019-02-18T20:39:48.500Z,68.90
2019-02-18T20:42:20.794Z,81.97
2019-02-18T20:48:05.810Z,84.17
2019-02-18T20:50:34.063Z,67.27
2019-02-18T20:53:02.575Z,83.17
2019-02-18T20:55:30.950Z,85.33
2019-02-18T20:58:00.685Z,77.70
2019-02-18T21:03:44.836Z,86.57
2019-02-18T21:06:13.172Z,75.80
2019-02-18T21:11:57.784Z,92.23
2019-02-18T21:17:41.972Z,99.60
2019-02-18T21:20:11.184Z,94.90
2019-02-18T21:26:07.767Z,104.53
2019-02-18T21:31:53.076Z,106.00
2019-02-18T21:34:21.193Z,91.17
2019-02-18T21:36:49.589Z,101.10
2019-02-18T21:42:34.566Z,88.57
2019-02-18T21:48:20.288Z,108.03
2019-02-18T21:50:48.837Z,91.93
2019-02-18T21:53:17.195Z,93.47
2019-02-18T21:55:45.620Z,95.13
2019-02-18T22:01:30.767Z,134.93
2019-02-18T22:03:59.043Z,108.63
2019-02-18T22:06:27.600Z,104.80
2019-02-18T22:08:56.008Z,104.03
2019-02-18T22:11:24.321Z,88.77
2019-02-18T22:17:09.012Z,141.70
2019-02-18T22:22:54.954Z,98.67
2019-02-18T22:28:42.845Z,114.13
2019-02-18T22:34:29.096Z,120.93
2019-02-18T22:40:14.501Z,124.63
2019-02-18T22:46:10.994Z,116.50
2019-02-18T22:51:55.640Z,124.43
2019-02-18T22:54:23.933Z,141.23
2019-02-18T22:56:52.206Z,134.07
2019-02-18T23:02:37.089Z,108.53
2019-02-18T23:08:21.976Z,122.87
2019-02-18T23:10:50.388Z,132.13
2019-02-18T23:16:34.953Z,134.10
2019-02-18T23:22:19.828Z,138.73
2019-02-18T23:24:48.584Z,138.53
2019-02-18T23:27:17.044Z,130.00
2019-02-18T23:33:00.849Z,152.23
2019-02-18T23:38:45.521Z,145.40
2019-02-18T23:44:30.642Z,137.43
2019-02-18T23:50:16.352Z,133.47
2019-02-18T23:52:44.853Z,150.17
2019-02-18T23:58:28.512Z,141.80
